sensor_id;sensor_type;location;lat;lon;timestamp;temperature;humidity
77496;SHT31;66600;48.378;9.948;2023-02-28T00:00:10;-2.91;81.00
77496;SHT31;66600;48.378;9.948;2023-02-28T00:02:41;-2.91;80.89
77496;SHT31;66600;48.378;9.948;2023-02-28T00:05:08;-2.89;80.33
77496;SHT31;66600;48.378;9.948;2023-02-28T00:07:34;-2.89;80.00
77496;SHT31;66600;48.378;9.948;2023-02-28T00:10:00;-2.86;79.75
77496;SHT31;66600;48.378;9.948;2023-02-28T00:12:26;-2.86;79.40
77496;SHT31;66600;48.378;9.948;2023-02-28T00:14:51;-2.86;79.66
77496;SHT31;66600;48.378;9.948;2023-02-28T00:17:17;-2.81;79.60
77496;SHT31;66600;48.378;9.948;2023-02-28T00:19:50;-2.81;78.76
77496;SHT31;66600;48.378;9.948;2023-02-28T00:22:16;-2.78;78.03
77496;SHT31;66600;48.378;9.948;2023-02-28T00:24:42;-2.79;78.25
77496;SHT31;66600;48.378;9.948;2023-02-28T00:27:07;-2.78;77.81
77496;SHT31;66600;48.378;9.948;2023-02-28T00:29:33;-2.76;77.63
77496;SHT31;66600;48.378;9.948;2023-02-28T00:31:58;-2.72;76.94
77496;SHT31;66600;48.378;9.948;2023-02-28T00:34:23;-2.72;76.40
77496;SHT31;66600;48.378;9.948;2023-02-28T00:36:49;-2.72;76.38
77496;SHT31;66600;48.378;9.948;2023-02-28T00:39:14;-2.64;75.71
77496;SHT31;66600;48.378;9.948;2023-02-28T00:41:40;-2.68;75.70
77496;SHT31;66600;48.378;9.948;2023-02-28T00:44:05;-2.58;74.92
77496;SHT31;66600;48.378;9.948;2023-02-28T00:46:30;-2.58;74.54
77496;SHT31;66600;48.378;9.948;2023-02-28T00:48:56;-2.74;74.69
77496;SHT31;66600;48.378;9.948;2023-02-28T00:51:21;-2.81;74.36
77496;SHT31;66600;48.378;9.948;2023-02-28T00:53:46;-2.75;74.75
77496;SHT31;66600;48.378;9.948;2023-02-28T00:56:12;-2.76;74.59
77496;SHT31;66600;48.378;9.948;2023-02-28T00:58:37;-2.74;74.74
77496;SHT31;66600;48.378;9.948;2023-02-28T01:01:02;-2.75;74.50
77496;SHT31;66600;48.378;9.948;2023-02-28T01:03:28;-2.76;74.12
77496;SHT31;66600;48.378;9.948;2023-02-28T01:05:53;-2.74;73.86
77496;SHT31;66600;48.378;9.948;2023-02-28T01:08:18;-2.75;74.22
77496;SHT31;66600;48.378;9.948;2023-02-28T01:10:44;-2.76;73.88
77496;SHT31;66600;48.378;9.948;2023-02-28T01:13:11;-2.78;73.65
77496;SHT31;66600;48.378;9.948;2023-02-28T01:15:37;-2.75;73.77
77496;SHT31;66600;48.378;9.948;2023-02-28T01:18:03;-2.79;73.45
77496;SHT31;66600;48.378;9.948;2023-02-28T01:20:28;-2.76;74.12
77496;SHT31;66600;48.378;9.948;2023-02-28T01:22:53;-2.72;74.54
77496;SHT31;66600;48.378;9.948;2023-02-28T01:25:18;-2.72;74.04
77496;SHT31;66600;48.378;9.948;2023-02-28T01:27:44;-2.74;73.90
77496;SHT31;66600;48.378;9.948;2023-02-28T01:30:10;-2.69;74.57
77496;SHT31;66600;48.378;9.948;2023-02-28T01:32:36;-2.76;74.15
77496;SHT31;66600;48.378;9.948;2023-02-28T01:35:01;-2.78;74.08
77496;SHT31;66600;48.378;9.948;2023-02-28T01:37:30;-2.72;74.42
77496;SHT31;66600;48.378;9.948;2023-02-28T01:39:55;-2.78;74.12
77496;SHT31;66600;48.378;9.948;2023-02-28T01:42:20;-2.81;73.98
77496;SHT31;66600;48.378;9.948;2023-02-28T01:45:18;-2.76;75.07
77496;SHT31;66600;48.378;9.948;2023-02-28T01:47:45;-2.78;74.25
77496;SHT31;66600;48.378;9.948;2023-02-28T01:50:16;-2.76;74.46
77496;SHT31;66600;48.378;9.948;2023-02-28T01:52:42;-2.75;74.12
77496;SHT31;66600;48.378;9.948;2023-02-28T01:55:10;-2.81;74.48
77496;SHT31;66600;48.378;9.948;2023-02-28T01:57:43;-2.79;74.57
77496;SHT31;66600;48.378;9.948;2023-02-28T02:00:13;-2.78;74.66
77496;SHT31;66600;48.378;9.948;2023-02-28T02:02:42;-2.78;74.59
77496;SHT31;66600;48.378;9.948;2023-02-28T02:05:15;-2.82;74.52
77496;SHT31;66600;48.378;9.948;2023-02-28T02:07:43;-2.75;74.89
77496;SHT31;66600;48.378;9.948;2023-02-28T02:15:58;-2.78;75.51
77496;SHT31;66600;48.378;9.948;2023-02-28T02:22:00;-2.75;74.91
77496;SHT31;66600;48.378;9.948;2023-02-28T02:24:27;-2.78;74.36
77496;SHT31;66600;48.378;9.948;2023-02-28T02:38:00;-2.81;73.65
77496;SHT31;66600;48.378;9.948;2023-02-28T02:40:37;-2.74;73.80
77496;SHT31;66600;48.378;9.948;2023-02-28T02:43:07;-2.76;73.63
77496;SHT31;66600;48.378;9.948;2023-02-28T02:48:13;-2.78;73.35
77496;SHT31;66600;48.378;9.948;2023-02-28T02:50:45;-2.76;73.27
77496;SHT31;66600;48.378;9.948;2023-02-28T02:53:13;-2.76;73.43
77496;SHT31;66600;48.378;9.948;2023-02-28T02:55:43;-2.76;73.19
77496;SHT31;66600;48.378;9.948;2023-02-28T02:58:17;-2.74;73.35
77496;SHT31;66600;48.378;9.948;2023-02-28T03:00:49;-2.79;73.26
77496;SHT31;66600;48.378;9.948;2023-02-28T03:03:18;-2.75;73.58
77496;SHT31;66600;48.378;9.948;2023-02-28T03:05:50;-2.74;73.18
77496;SHT31;66600;48.378;9.948;2023-02-28T03:08:16;-2.75;73.48
77496;SHT31;66600;48.378;9.948;2023-02-28T03:10:46;-2.75;73.16
77496;SHT31;66600;48.378;9.948;2023-02-28T03:13:37;-2.75;73.20
77496;SHT31;66600;48.378;9.948;2023-02-28T03:30:17;-2.74;73.25
77496;SHT31;66600;48.378;9.948;2023-02-28T03:32:53;-2.71;73.37
77496;SHT31;66600;48.378;9.948;2023-02-28T03:35:26;-2.72;73.42
77496;SHT31;66600;48.378;9.948;2023-02-28T03:38:00;-2.71;73.22
77496;SHT31;66600;48.378;9.948;2023-02-28T03:40:30;-2.75;73.40
77496;SHT31;66600;48.378;9.948;2023-02-28T03:43:04;-2.71;73.46
77496;SHT31;66600;48.378;9.948;2023-02-28T03:45:36;-2.72;73.59
77496;SHT31;66600;48.378;9.948;2023-02-28T03:48:10;-2.65;73.54
77496;SHT31;66600;48.378;9.948;2023-02-28T03:50:44;-2.71;73.32
77496;SHT31;66600;48.378;9.948;2023-02-28T03:53:16;-2.71;73.25
77496;SHT31;66600;48.378;9.948;2023-02-28T03:55:49;-2.66;73.22
77496;SHT31;66600;48.378;9.948;2023-02-28T03:58:24;-2.69;73.62
77496;SHT31;66600;48.378;9.948;2023-02-28T04:00:56;-2.68;73.42
77496;SHT31;66600;48.378;9.948;2023-02-28T04:03:24;-2.66;73.27
77496;SHT31;66600;48.378;9.948;2023-02-28T04:05:51;-2.66;73.36
77496;SHT31;66600;48.378;9.948;2023-02-28T04:08:17;-2.65;73.46
77496;SHT31;66600;48.378;9.948;2023-02-28T04:10:45;-2.68;73.04
77496;SHT31;66600;48.378;9.948;2023-02-28T04:13:12;-2.68;73.22
77496;SHT31;66600;48.378;9.948;2023-02-28T04:15:37;-2.69;73.22
77496;SHT31;66600;48.378;9.948;2023-02-28T04:18:02;-2.72;73.40
77496;SHT31;66600;48.378;9.948;2023-02-28T04:20:28;-2.72;73.44
77496;SHT31;66600;48.378;9.948;2023-02-28T04:22:53;-2.71;73.42
77496;SHT31;66600;48.378;9.948;2023-02-28T04:25:18;-2.71;73.77
77496;SHT31;66600;48.378;9.948;2023-02-28T04:27:44;-2.68;73.57
77496;SHT31;66600;48.378;9.948;2023-02-28T04:30:10;-2.68;73.70
77496;SHT31;66600;48.378;9.948;2023-02-28T04:32:36;-2.65;73.58
77496;SHT31;66600;48.378;9.948;2023-02-28T04:35:01;-2.68;73.59
77496;SHT31;66600;48.378;9.948;2023-02-28T04:37:27;-2.65;73.82
77496;SHT31;66600;48.378;9.948;2023-02-28T04:39:53;-2.62;74.01
77496;SHT31;66600;48.378;9.948;2023-02-28T04:42:19;-2.66;73.74
77496;SHT31;66600;48.378;9.948;2023-02-28T04:44:45;-2.66;73.74
77496;SHT31;66600;48.378;9.948;2023-02-28T04:47:10;-2.65;73.88
77496;SHT31;66600;48.378;9.948;2023-02-28T04:49:36;-2.61;73.96
77496;SHT31;66600;48.378;9.948;2023-02-28T04:52:01;-2.68;73.91
77496;SHT31;66600;48.378;9.948;2023-02-28T04:54:27;-2.69;73.82
77496;SHT31;66600;48.378;9.948;2023-02-28T04:56:53;-2.66;73.93
77496;SHT31;66600;48.378;9.948;2023-02-28T04:59:19;-2.64;74.15
77496;SHT31;66600;48.378;9.948;2023-02-28T05:01:46;-2.64;74.20
77496;SHT31;66600;48.378;9.948;2023-02-28T05:04:12;-2.64;74.23
77496;SHT31;66600;48.378;9.948;2023-02-28T05:06:37;-2.60;74.42
77496;SHT31;66600;48.378;9.948;2023-02-28T05:09:02;-2.55;74.36
77496;SHT31;66600;48.378;9.948;2023-02-28T05:11:30;-2.58;74.07
77496;SHT31;66600;48.378;9.948;2023-02-28T05:14:00;-2.60;74.22
77496;SHT31;66600;48.378;9.948;2023-02-28T05:16:25;-2.62;74.25
77496;SHT31;66600;48.378;9.948;2023-02-28T05:18:50;-2.65;74.32
77496;SHT31;66600;48.378;9.948;2023-02-28T05:21:28;-2.62;74.12
77496;SHT31;66600;48.378;9.948;2023-02-28T05:23:56;-2.61;74.23
77496;SHT31;66600;48.378;9.948;2023-02-28T05:26:21;-2.60;74.23
77496;SHT31;66600;48.378;9.948;2023-02-28T05:28:47;-2.60;74.15
77496;SHT31;66600;48.378;9.948;2023-02-28T05:31:12;-2.57;74.28
77496;SHT31;66600;48.378;9.948;2023-02-28T05:33:38;-2.61;74.04
77496;SHT31;66600;48.378;9.948;2023-02-28T05:36:05;-2.60;74.27
77496;SHT31;66600;48.378;9.948;2023-02-28T05:38:30;-2.57;74.09
77496;SHT31;66600;48.378;9.948;2023-02-28T05:40:55;-2.55;73.95
77496;SHT31;66600;48.378;9.948;2023-02-28T05:43:21;-2.60;73.92
77496;SHT31;66600;48.378;9.948;2023-02-28T05:45:46;-2.65;73.99
77496;SHT31;66600;48.378;9.948;2023-02-28T05:48:12;-2.65;74.20
77496;SHT31;66600;48.378;9.948;2023-02-28T05:50:37;-2.64;74.36
77496;SHT31;66600;48.378;9.948;2023-02-28T05:53:03;-2.66;74.14
77496;SHT31;66600;48.378;9.948;2023-02-28T05:55:29;-2.62;74.46
77496;SHT31;66600;48.378;9.948;2023-02-28T05:57:54;-2.65;74.15
77496;SHT31;66600;48.378;9.948;2023-02-28T06:00:21;-2.62;74.46
77496;SHT31;66600;48.378;9.948;2023-02-28T06:02:46;-2.60;74.46
77496;SHT31;66600;48.378;9.948;2023-02-28T06:05:16;-2.60;74.21
77496;SHT31;66600;48.378;9.948;2023-02-28T06:07:42;-2.65;74.28
77496;SHT31;66600;48.378;9.948;2023-02-28T06:10:10;-2.64;74.51
77496;SHT31;66600;48.378;9.948;2023-02-28T06:12:36;-2.60;74.55
77496;SHT31;66600;48.378;9.948;2023-02-28T06:15:01;-2.61;74.70
77496;SHT31;66600;48.378;9.948;2023-02-28T06:17:27;-2.62;74.78
77496;SHT31;66600;48.378;9.948;2023-02-28T06:19:52;-2.57;74.94
77496;SHT31;66600;48.378;9.948;2023-02-28T06:22:17;-2.55;74.52
77496;SHT31;66600;48.378;9.948;2023-02-28T06:24:43;-2.55;74.22
77496;SHT31;66600;48.378;9.948;2023-02-28T06:27:08;-2.57;74.04
77496;SHT31;66600;48.378;9.948;2023-02-28T06:29:35;-2.60;74.44
77496;SHT31;66600;48.378;9.948;2023-02-28T06:32:00;-2.58;74.81
77496;SHT31;66600;48.378;9.948;2023-02-28T06:34:25;-2.62;74.53
77496;SHT31;66600;48.378;9.948;2023-02-28T06:36:51;-2.57;74.74
77496;SHT31;66600;48.378;9.948;2023-02-28T06:39:17;-2.53;74.76
77496;SHT31;66600;48.378;9.948;2023-02-28T06:41:43;-2.57;74.22
77496;SHT31;66600;48.378;9.948;2023-02-28T06:44:16;-2.57;74.60
77496;SHT31;66600;48.378;9.948;2023-02-28T06:46:44;-2.57;74.39
77496;SHT31;66600;48.378;9.948;2023-02-28T06:49:10;-2.57;74.40
77496;SHT31;66600;48.378;9.948;2023-02-28T06:51:37;-2.51;74.09
77496;SHT31;66600;48.378;9.948;2023-02-28T06:54:04;-2.53;74.34
77496;SHT31;66600;48.378;9.948;2023-02-28T06:56:29;-2.58;74.20
77496;SHT31;66600;48.378;9.948;2023-02-28T06:58:55;-2.58;74.41
77496;SHT31;66600;48.378;9.948;2023-02-28T07:01:21;-2.65;74.42
77496;SHT31;66600;48.378;9.948;2023-02-28T07:03:50;-2.61;74.49
77496;SHT31;66600;48.378;9.948;2023-02-28T07:06:23;-2.61;74.50
77496;SHT31;66600;48.378;9.948;2023-02-28T07:08:52;-2.51;74.44
77496;SHT31;66600;48.378;9.948;2023-02-28T07:11:19;-2.50;74.44
77496;SHT31;66600;48.378;9.948;2023-02-28T07:13:44;-2.47;74.16
77496;SHT31;66600;48.378;9.948;2023-02-28T07:16:11;-2.55;74.29
77496;SHT31;66600;48.378;9.948;2023-02-28T07:18:37;-2.45;74.43
77496;SHT31;66600;48.378;9.948;2023-02-28T07:21:04;-2.45;74.13
77496;SHT31;66600;48.378;9.948;2023-02-28T07:23:30;-2.44;74.25
77496;SHT31;66600;48.378;9.948;2023-02-28T07:25:56;-2.36;74.11
77496;SHT31;66600;48.378;9.948;2023-02-28T07:28:21;-2.41;73.93
77496;SHT31;66600;48.378;9.948;2023-02-28T07:30:47;-2.41;73.84
77496;SHT31;66600;48.378;9.948;2023-02-28T07:33:13;-2.47;74.24
77496;SHT31;66600;48.378;9.948;2023-02-28T07:35:38;-2.45;74.70
77496;SHT31;66600;48.378;9.948;2023-02-28T07:38:04;-2.47;74.21
77496;SHT31;66600;48.378;9.948;2023-02-28T07:40:30;-2.45;74.22
77496;SHT31;66600;48.378;9.948;2023-02-28T07:42:56;-2.44;74.22
77496;SHT31;66600;48.378;9.948;2023-02-28T07:45:21;-2.45;73.99
77496;SHT31;66600;48.378;9.948;2023-02-28T07:47:46;-2.36;73.93
77496;SHT31;66600;48.378;9.948;2023-02-28T07:50:14;-2.38;73.80
77496;SHT31;66600;48.378;9.948;2023-02-28T07:52:40;-2.34;73.67
77496;SHT31;66600;48.378;9.948;2023-02-28T07:55:07;-2.38;73.59
77496;SHT31;66600;48.378;9.948;2023-02-28T07:57:33;-2.30;73.65
77496;SHT31;66600;48.378;9.948;2023-02-28T07:59:58;-2.34;73.76
77496;SHT31;66600;48.378;9.948;2023-02-28T08:02:23;-2.32;73.46
77496;SHT31;66600;48.378;9.948;2023-02-28T08:04:49;-2.36;73.46
77496;SHT31;66600;48.378;9.948;2023-02-28T08:07:16;-2.30;73.65
77496;SHT31;66600;48.378;9.948;2023-02-28T08:09:42;-2.22;73.41
77496;SHT31;66600;48.378;9.948;2023-02-28T08:12:08;-2.25;73.10
77496;SHT31;66600;48.378;9.948;2023-02-28T08:14:34;-2.32;73.55
77496;SHT31;66600;48.378;9.948;2023-02-28T08:17:00;-2.22;73.44
77496;SHT31;66600;48.378;9.948;2023-02-28T08:19:25;-2.10;72.98
77496;SHT31;66600;48.378;9.948;2023-02-28T08:21:51;-2.10;72.85
77496;SHT31;66600;48.378;9.948;2023-02-28T08:24:16;-2.23;72.87
77496;SHT31;66600;48.378;9.948;2023-02-28T08:26:41;-2.14;73.02
77496;SHT31;66600;48.378;9.948;2023-02-28T08:29:06;-2.11;72.59
77496;SHT31;66600;48.378;9.948;2023-02-28T08:31:32;-2.17;72.90
77496;SHT31;66600;48.378;9.948;2023-02-28T08:33:57;-2.06;72.90
77496;SHT31;66600;48.378;9.948;2023-02-28T08:36:25;-2.05;72.41
77496;SHT31;66600;48.378;9.948;2023-02-28T08:38:51;-2.27;72.98
77496;SHT31;66600;48.378;9.948;2023-02-28T08:41:16;-2.16;72.76
77496;SHT31;66600;48.378;9.948;2023-02-28T08:43:41;-2.06;72.77
77496;SHT31;66600;48.378;9.948;2023-02-28T08:46:08;-2.02;72.38
77496;SHT31;66600;48.378;9.948;2023-02-28T08:48:35;-2.00;72.18
77496;SHT31;66600;48.378;9.948;2023-02-28T08:51:09;-1.98;72.05
77496;SHT31;66600;48.378;9.948;2023-02-28T08:53:38;-2.02;72.13
77496;SHT31;66600;48.378;9.948;2023-02-28T08:56:14;-1.92;72.01
77496;SHT31;66600;48.378;9.948;2023-02-28T08:58:41;-1.89;71.83
77496;SHT31;66600;48.378;9.948;2023-02-28T09:01:19;-1.72;71.33
77496;SHT31;66600;48.378;9.948;2023-02-28T09:03:46;-1.77;70.78
77496;SHT31;66600;48.378;9.948;2023-02-28T09:06:13;-1.79;71.53
77496;SHT31;66600;48.378;9.948;2023-02-28T09:08:39;-1.96;71.93
77496;SHT31;66600;48.378;9.948;2023-02-28T09:11:05;-1.95;71.92
77496;SHT31;66600;48.378;9.948;2023-02-28T09:13:31;-1.78;71.42
77496;SHT31;66600;48.378;9.948;2023-02-28T09:15:59;-1.78;71.51
77496;SHT31;66600;48.378;9.948;2023-02-28T09:18:25;-1.64;71.34
77496;SHT31;66600;48.378;9.948;2023-02-28T09:20:51;-1.62;70.96
77496;SHT31;66600;48.378;9.948;2023-02-28T09:23:16;-1.58;70.72
77496;SHT31;66600;48.378;9.948;2023-02-28T09:25:50;-1.82;71.11
77496;SHT31;66600;48.378;9.948;2023-02-28T09:28:17;-1.75;71.13
77496;SHT31;66600;48.378;9.948;2023-02-28T09:30:45;-1.95;71.51
77496;SHT31;66600;48.378;9.948;2023-02-28T09:33:11;-1.60;71.25
77496;SHT31;66600;48.378;9.948;2023-02-28T09:35:36;-1.23;69.98
77496;SHT31;66600;48.378;9.948;2023-02-28T09:38:03;-1.27;69.14
77496;SHT31;66600;48.378;9.948;2023-02-28T09:40:28;-1.12;68.73
77496;SHT31;66600;48.378;9.948;2023-02-28T09:42:57;-0.97;68.76
77496;SHT31;66600;48.378;9.948;2023-02-28T09:45:31;-0.84;68.54
77496;SHT31;66600;48.378;9.948;2023-02-28T09:48:10;-0.82;68.15
77496;SHT31;66600;48.378;9.948;2023-02-28T09:50:40;-0.79;67.93
77496;SHT31;66600;48.378;9.948;2023-02-28T09:53:17;-0.71;68.09
77496;SHT31;66600;48.378;9.948;2023-02-28T09:55:48;-0.68;67.24
77496;SHT31;66600;48.378;9.948;2023-02-28T09:58:29;-0.62;67.18
77496;SHT31;66600;48.378;9.948;2023-02-28T10:01:23;-0.93;67.82
77496;SHT31;66600;48.378;9.948;2023-02-28T10:03:56;-0.81;68.24
77496;SHT31;66600;48.378;9.948;2023-02-28T10:06:26;-0.68;67.81
77496;SHT31;66600;48.378;9.948;2023-02-28T10:09:05;-0.64;67.82
77496;SHT31;66600;48.378;9.948;2023-02-28T10:11:35;-0.54;67.58
77496;SHT31;66600;48.378;9.948;2023-02-28T10:14:15;-0.68;68.05
77496;SHT31;66600;48.378;9.948;2023-02-28T10:16:51;-0.65;68.19
77496;SHT31;66600;48.378;9.948;2023-02-28T10:19:30;-0.40;67.35
77496;SHT31;66600;48.378;9.948;2023-02-28T10:22:04;-0.38;66.79
77496;SHT31;66600;48.378;9.948;2023-02-28T10:24:49;-0.47;66.94
77496;SHT31;66600;48.378;9.948;2023-02-28T10:29:51;-0.54;67.10
77496;SHT31;66600;48.378;9.948;2023-02-28T10:32:36;-0.68;67.16
77496;SHT31;66600;48.378;9.948;2023-02-28T10:35:10;-0.09;66.46
77496;SHT31;66600;48.378;9.948;2023-02-28T10:37:37;0.05;65.66
77496;SHT31;66600;48.378;9.948;2023-02-28T10:40:25;0.45;64.89
77496;SHT31;66600;48.378;9.948;2023-02-28T10:43:02;0.83;63.69
77496;SHT31;66600;48.378;9.948;2023-02-28T10:45:29;1.39;62.53
77496;SHT31;66600;48.378;9.948;2023-02-28T10:48:04;1.58;61.30
77496;SHT31;66600;48.378;9.948;2023-02-28T10:58:49;1.09;62.69
77496;SHT31;66600;48.378;9.948;2023-02-28T11:01:20;1.36;61.71
77496;SHT31;66600;48.378;9.948;2023-02-28T11:03:46;1.34;61.05
77496;SHT31;66600;48.378;9.948;2023-02-28T11:06:19;1.09;62.71
77496;SHT31;66600;48.378;9.948;2023-02-28T11:08:58;1.53;60.64
77496;SHT31;66600;48.378;9.948;2023-02-28T11:11:26;1.86;60.32
77496;SHT31;66600;48.378;9.948;2023-02-28T11:13:55;1.93;59.71
77496;SHT31;66600;48.378;9.948;2023-02-28T11:16:21;1.43;60.65
77496;SHT31;66600;48.378;9.948;2023-02-28T11:18:54;1.87;60.23
77496;SHT31;66600;48.378;9.948;2023-02-28T11:21:28;1.69;59.12
77496;SHT31;66600;48.378;9.948;2023-02-28T11:24:02;1.14;62.26
77496;SHT31;66600;48.378;9.948;2023-02-28T11:26:55;2.13;58.71
77496;SHT31;66600;48.378;9.948;2023-02-28T11:29:29;1.53;61.05
77496;SHT31;66600;48.378;9.948;2023-02-28T11:32:18;2.31;59.65
77496;SHT31;66600;48.378;9.948;2023-02-28T11:34:44;2.99;57.66
77496;SHT31;66600;48.378;9.948;2023-02-28T11:37:13;2.27;58.31
77496;SHT31;66600;48.378;9.948;2023-02-28T11:39:40;1.51;60.40
77496;SHT31;66600;48.378;9.948;2023-02-28T11:42:22;0.73;62.58
77496;SHT31;66600;48.378;9.948;2023-02-28T11:45:01;0.69;64.09
77496;SHT31;66600;48.378;9.948;2023-02-28T11:47:48;1.31;62.50
77496;SHT31;66600;48.378;9.948;2023-02-28T11:52:54;0.96;63.04
77496;SHT31;66600;48.378;9.948;2023-02-28T11:55:45;0.88;63.22
77496;SHT31;66600;48.378;9.948;2023-02-28T11:58:34;1.11;62.30
77496;SHT31;66600;48.378;9.948;2023-02-28T12:04:10;0.77;63.25
77496;SHT31;66600;48.378;9.948;2023-02-28T12:26:10;2.03;60.44
77496;SHT31;66600;48.378;9.948;2023-02-28T12:28:46;1.79;61.14
77496;SHT31;66600;48.378;9.948;2023-02-28T12:31:36;1.70;61.46
77496;SHT31;66600;48.378;9.948;2023-02-28T12:34:10;2.13;60.76
77496;SHT31;66600;48.378;9.948;2023-02-28T12:36:37;2.53;58.84
77496;SHT31;66600;48.378;9.948;2023-02-28T12:39:18;2.39;58.70
77496;SHT31;66600;48.378;9.948;2023-02-28T12:41:49;2.56;58.06
77496;SHT31;66600;48.378;9.948;2023-02-28T12:44:26;2.86;57.23
77496;SHT31;66600;48.378;9.948;2023-02-28T12:46:57;2.97;57.12
77496;SHT31;66600;48.378;9.948;2023-02-28T12:49:34;2.17;58.05
77496;SHT31;66600;48.378;9.948;2023-02-28T12:52:03;2.42;59.74
77496;SHT31;66600;48.378;9.948;2023-02-28T12:54:50;2.72;57.74
77496;SHT31;66600;48.378;9.948;2023-02-28T12:57:38;3.10;58.29
77496;SHT31;66600;48.378;9.948;2023-02-28T13:00:12;2.96;56.89
77496;SHT31;66600;48.378;9.948;2023-02-28T13:05:45;2.75;57.56
77496;SHT31;66600;48.378;9.948;2023-02-28T13:10:49;2.89;57.46
77496;SHT31;66600;48.378;9.948;2023-02-28T13:13:27;2.65;58.33
77496;SHT31;66600;48.378;9.948;2023-02-28T13:15:58;2.37;58.18
77496;SHT31;66600;48.378;9.948;2023-02-28T13:18:44;2.71;58.62
77496;SHT31;66600;48.378;9.948;2023-02-28T13:21:23;3.13;56.77
77496;SHT31;66600;48.378;9.948;2023-02-28T13:26:22;2.71;56.98
77496;SHT31;66600;48.378;9.948;2023-02-28T13:31:18;3.46;56.51
77496;SHT31;66600;48.378;9.948;2023-02-28T13:39:03;2.83;58.24
77496;SHT31;66600;48.378;9.948;2023-02-28T13:41:47;3.24;55.86
77496;SHT31;66600;48.378;9.948;2023-02-28T13:52:07;4.11;54.16
77496;SHT31;66600;48.378;9.948;2023-02-28T13:54:50;3.91;53.17
77496;SHT31;66600;48.378;9.948;2023-02-28T13:57:25;3.03;55.99
77496;SHT31;66600;48.378;9.948;2023-02-28T14:00:17;2.69;57.52
77496;SHT31;66600;48.378;9.948;2023-02-28T14:03:01;3.01;56.34
77496;SHT31;66600;48.378;9.948;2023-02-28T14:05:30;3.45;54.93
77496;SHT31;66600;48.378;9.948;2023-02-28T14:08:00;3.36;55.39
77496;SHT31;66600;48.378;9.948;2023-02-28T14:10:32;3.76;54.47
77496;SHT31;66600;48.378;9.948;2023-02-28T14:16:05;3.75;54.48
77496;SHT31;66600;48.378;9.948;2023-02-28T14:18:36;3.93;54.81
77496;SHT31;66600;48.378;9.948;2023-02-28T14:32:49;3.60;55.24
77496;SHT31;66600;48.378;9.948;2023-02-28T14:37:46;3.08;56.55
77496;SHT31;66600;48.378;9.948;2023-02-28T14:40:29;2.99;56.65
77496;SHT31;66600;48.378;9.948;2023-02-28T14:42:58;2.99;56.97
77496;SHT31;66600;48.378;9.948;2023-02-28T14:45:25;3.03;56.90
77496;SHT31;66600;48.378;9.948;2023-02-28T14:47:52;3.11;56.10
77496;SHT31;66600;48.378;9.948;2023-02-28T14:50:26;3.60;55.18
77496;SHT31;66600;48.378;9.948;2023-02-28T14:52:56;3.78;54.75
77496;SHT31;66600;48.378;9.948;2023-02-28T14:55:34;3.73;54.60
77496;SHT31;66600;48.378;9.948;2023-02-28T14:58:05;3.55;55.30
77496;SHT31;66600;48.378;9.948;2023-02-28T15:00:52;3.66;55.00
77496;SHT31;66600;48.378;9.948;2023-02-28T15:03:23;3.90;54.02
77496;SHT31;66600;48.378;9.948;2023-02-28T15:06:16;4.04;54.46
77496;SHT31;66600;48.378;9.948;2023-02-28T15:08:43;4.46;52.85
77496;SHT31;66600;48.378;9.948;2023-02-28T15:11:13;3.94;53.40
77496;SHT31;66600;48.378;9.948;2023-02-28T15:13:57;3.72;54.05
77496;SHT31;66600;48.378;9.948;2023-02-28T15:16:36;4.01;54.22
77496;SHT31;66600;48.378;9.948;2023-02-28T15:19:25;3.85;53.34
77496;SHT31;66600;48.378;9.948;2023-02-28T15:22:00;4.27;53.44
77496;SHT31;66600;48.378;9.948;2023-02-28T15:24:43;3.90;53.47
77496;SHT31;66600;48.378;9.948;2023-02-28T15:29:49;3.68;54.72
77496;SHT31;66600;48.378;9.948;2023-02-28T15:32:36;3.51;55.50
77496;SHT31;66600;48.378;9.948;2023-02-28T15:35:28;3.07;56.13
77496;SHT31;66600;48.378;9.948;2023-02-28T15:37:57;2.96;56.27
77496;SHT31;66600;48.378;9.948;2023-02-28T15:40:41;3.14;56.25
77496;SHT31;66600;48.378;9.948;2023-02-28T15:43:14;3.38;55.59
77496;SHT31;66600;48.378;9.948;2023-02-28T15:48:15;2.72;56.62
77496;SHT31;66600;48.378;9.948;2023-02-28T15:50:41;2.62;57.20
77496;SHT31;66600;48.378;9.948;2023-02-28T15:53:14;2.60;57.70
77496;SHT31;66600;48.378;9.948;2023-02-28T15:55:40;2.56;57.60
77496;SHT31;66600;48.378;9.948;2023-02-28T15:58:10;2.57;57.78
77496;SHT31;66600;48.378;9.948;2023-02-28T16:00:38;2.52;57.72
77496;SHT31;66600;48.378;9.948;2023-02-28T16:03:26;2.69;57.60
77496;SHT31;66600;48.378;9.948;2023-02-28T16:08:41;2.62;57.63
77496;SHT31;66600;48.378;9.948;2023-02-28T16:11:09;2.56;57.35
77496;SHT31;66600;48.378;9.948;2023-02-28T16:13:35;2.67;57.62
77496;SHT31;66600;48.378;9.948;2023-02-28T16:16:00;2.73;57.38
77496;SHT31;66600;48.378;9.948;2023-02-28T16:18:26;2.73;57.35
77496;SHT31;66600;48.378;9.948;2023-02-28T16:20:53;2.86;57.45
77496;SHT31;66600;48.378;9.948;2023-02-28T16:23:19;2.92;56.69
77496;SHT31;66600;48.378;9.948;2023-02-28T16:25:44;3.22;56.76
77496;SHT31;66600;48.378;9.948;2023-02-28T16:28:24;3.28;56.05
77496;SHT31;66600;48.378;9.948;2023-02-28T16:30:53;3.14;56.37
77496;SHT31;66600;48.378;9.948;2023-02-28T16:33:18;3.14;56.47
77496;SHT31;66600;48.378;9.948;2023-02-28T16:35:44;2.80;57.02
77496;SHT31;66600;48.378;9.948;2023-02-28T16:38:09;2.93;57.29
77496;SHT31;66600;48.378;9.948;2023-02-28T16:40:35;2.79;57.33
77496;SHT31;66600;48.378;9.948;2023-02-28T16:43:05;2.46;58.19
77496;SHT31;66600;48.378;9.948;2023-02-28T16:45:31;2.25;58.99
77496;SHT31;66600;48.378;9.948;2023-02-28T16:47:57;2.04;59.80
77496;SHT31;66600;48.378;9.948;2023-02-28T16:50:24;1.76;60.52
77496;SHT31;66600;48.378;9.948;2023-02-28T16:52:50;1.64;61.30
77496;SHT31;66600;48.378;9.948;2023-02-28T16:55:18;1.55;61.36
77496;SHT31;66600;48.378;9.948;2023-02-28T16:57:44;1.46;61.70
77496;SHT31;66600;48.378;9.948;2023-02-28T17:00:13;1.42;62.29
77496;SHT31;66600;48.378;9.948;2023-02-28T17:02:39;1.31;62.60
77496;SHT31;66600;48.378;9.948;2023-02-28T17:05:05;1.30;62.46
77496;SHT31;66600;48.378;9.948;2023-02-28T17:07:31;1.28;62.24
77496;SHT31;66600;48.378;9.948;2023-02-28T17:09:57;1.27;62.30
77496;SHT31;66600;48.378;9.948;2023-02-28T17:12:22;1.27;62.28
77496;SHT31;66600;48.378;9.948;2023-02-28T17:14:48;1.24;62.56
77496;SHT31;66600;48.378;9.948;2023-02-28T17:17:17;1.22;62.47
77496;SHT31;66600;48.378;9.948;2023-02-28T17:19:43;1.07;63.62
77496;SHT31;66600;48.378;9.948;2023-02-28T17:22:09;1.05;63.47
77496;SHT31;66600;48.378;9.948;2023-02-28T17:24:35;0.97;63.74
77496;SHT31;66600;48.378;9.948;2023-02-28T17:27:01;0.91;64.33
77496;SHT31;66600;48.378;9.948;2023-02-28T17:29:27;0.97;63.73
77496;SHT31;66600;48.378;9.948;2023-02-28T17:31:52;0.91;64.18
77496;SHT31;66600;48.378;9.948;2023-02-28T17:34:18;0.97;63.93
77496;SHT31;66600;48.378;9.948;2023-02-28T17:36:45;0.98;63.85
77496;SHT31;66600;48.378;9.948;2023-02-28T17:39:12;0.90;64.36
77496;SHT31;66600;48.378;9.948;2023-02-28T17:41:41;0.91;64.14
77496;SHT31;66600;48.378;9.948;2023-02-28T17:44:07;0.87;64.32
77496;SHT31;66600;48.378;9.948;2023-02-28T17:46:33;0.87;64.40
77496;SHT31;66600;48.378;9.948;2023-02-28T17:48:59;0.90;64.10
77496;SHT31;66600;48.378;9.948;2023-02-28T17:51:25;0.88;64.18
77496;SHT31;66600;48.378;9.948;2023-02-28T17:53:50;0.80;64.61